Time;durP1;ratioP1;P1;durP2;ratioP2;P2;SDS_P1;SDS_P2;PMS_P1;PMS_P2;Temp;Humidity;BMP_temperature;BMP_pressure;BME280_temperature;BME280_humidity;BME280_pressure;Samples;Min_cycle;Max_cycle;Signal;HPM_P1;HPM_P2
2021/12/20 00:02:20;;;;;;;21.92;4.35;;;;;;;;;;5052278;28;20440;-29
2021/12/20 00:04:51;;;;;;;21.00;4.20;;;;;;;;;;5052072;28;20043;-29
2021/12/20 00:07:16;;;;;;;21.48;5.00;;;;;;;;;;5052294;28;20052;-29
2021/12/20 00:09:42;;;;;;;25.63;4.57;;;;;;;;;;5052426;28;20049;-27
2021/12/20 00:12:09;;;;;;;18.85;4.80;;;;;;;;;;5034833;28;20159;-28
2021/12/20 00:14:34;;;;;;;22.27;5.15;;;;;;;;;;5034199;28;20056;-26
2021/12/20 00:17:00;;;;;;;23.17;4.65;;;;;;;;;;5052640;28;20147;-28
2021/12/20 00:19:26;;;;;;;20.20;4.40;;;;;;;;;;5052285;28;20076;-25
2021/12/20 00:21:52;;;;;;;22.23;5.47;;;;;;;;;;5052656;28;20608;-25
2021/12/20 00:24:19;;;;;;;18.08;4.25;;;;;;;;;;5052628;28;20132;-26
2021/12/20 00:26:45;;;;;;;21.15;5.13;;;;;;;;;;5034667;28;20560;-26
2021/12/20 00:29:11;;;;;;;21.15;5.03;;;;;;;;;;5034909;28;20530;-26
2021/12/20 00:31:37;;;;;;;19.42;4.22;;;;;;;;;;5052668;28;20083;-25
2021/12/20 00:34:03;;;;;;;24.95;4.47;;;;;;;;;;5034572;28;20132;-26
2021/12/20 00:36:30;;;;;;;21.98;4.95;;;;;;;;;;5052620;28;20091;-25
2021/12/20 00:41:40;;;;;;;21.88;4.93;;;;;;;;;;5051821;28;20049;-28
2021/12/20 00:44:06;;;;;;;22.35;3.80;;;;;;;;;;5052215;28;20044;-26
2021/12/20 00:46:33;;;;;;;18.30;4.05;;;;;;;;;;5051869;28;20186;-26
2021/12/20 00:48:59;;;;;;;19.95;4.38;;;;;;;;;;5051801;28;20052;-26
2021/12/20 00:51:25;;;;;;;20.30;4.47;;;;;;;;;;5052019;28;20041;-27
2021/12/20 00:53:51;;;;;;;24.85;4.28;;;;;;;;;;5051075;28;20339;-27
2021/12/20 00:56:17;;;;;;;17.08;4.53;;;;;;;;;;5051213;28;20406;-27
2021/12/20 00:58:43;;;;;;;22.40;4.28;;;;;;;;;;5033880;28;20354;-26
2021/12/20 01:01:10;;;;;;;26.40;4.95;;;;;;;;;;5051997;28;20505;-27
2021/12/20 01:03:42;;;;;;;21.10;4.18;;;;;;;;;;5051457;28;20125;-27
2021/12/20 01:06:08;;;;;;;17.08;3.90;;;;;;;;;;5051500;28;20409;-27
2021/12/20 01:08:36;;;;;;;21.25;4.70;;;;;;;;;;5051252;28;20042;-26
2021/12/20 01:11:03;;;;;;;23.20;4.43;;;;;;;;;;5033508;28;20080;-27
2021/12/20 01:13:40;;;;;;;21.38;4.25;;;;;;;;;;5016319;28;20536;-27
2021/12/20 01:16:07;;;;;;;17.42;3.88;;;;;;;;;;5050965;28;20064;-27
2021/12/20 01:18:34;;;;;;;22.20;4.82;;;;;;;;;;5051187;28;20048;-27
2021/12/20 01:21:00;;;;;;;23.77;4.93;;;;;;;;;;5051474;28;20045;-26
2021/12/20 01:23:26;;;;;;;23.67;4.43;;;;;;;;;;5050423;28;20048;-27
2021/12/20 01:25:54;;;;;;;22.27;4.30;;;;;;;;;;5051083;28;20428;-27
2021/12/20 01:28:21;;;;;;;22.33;4.00;;;;;;;;;;5050453;28;20116;-27
2021/12/20 01:30:47;;;;;;;22.17;4.70;;;;;;;;;;5050882;28;20068;-27
2021/12/20 01:33:13;;;;;;;23.33;3.85;;;;;;;;;;5050438;28;20033;-26
2021/12/20 01:35:40;;;;;;;25.42;5.20;;;;;;;;;;5050577;28;20063;-27
2021/12/20 01:38:06;;;;;;;25.83;4.18;;;;;;;;;;5050839;28;20512;-26
2021/12/20 01:40:32;;;;;;;28.00;4.43;;;;;;;;;;5050728;28;20036;-27
2021/12/20 01:43:10;;;;;;;23.35;3.95;;;;;;;;;;5049841;28;20449;-27
2021/12/20 01:45:37;;;;;;;27.80;4.07;;;;;;;;;;5050351;28;20151;-26
2021/12/20 01:48:06;;;;;;;28.10;4.63;;;;;;;;;;5050078;28;20044;-27
2021/12/20 01:53:13;;;;;;;17.95;3.63;;;;;;;;;;5049593;28;20437;-26
2021/12/20 01:55:39;;;;;;;21.33;4.38;;;;;;;;;;5050150;28;20562;-26
2021/12/20 01:58:05;;;;;;;21.98;4.45;;;;;;;;;;5049872;28;20041;-26
2021/12/20 02:00:31;;;;;;;18.90;4.25;;;;;;;;;;5050191;28;20535;-27
2021/12/20 02:03:00;;;;;;;18.30;4.13;;;;;;;;;;5050370;28;20502;-27
2021/12/20 02:06:19;;;;;;;23.05;4.43;;;;;;;;;;5049987;28;20041;-26
2021/12/20 02:08:28;;;;;;;18.23;4.38;;;;;;;;;;5037393;28;20073;-26
2021/12/20 02:10:56;;;;;;;20.58;3.90;;;;;;;;;;5050093;28;20398;-27
2021/12/20 02:13:24;;;;;;;20.77;4.15;;;;;;;;;;5015484;28;20041;-27
2021/12/20 02:15:51;;;;;;;18.13;3.97;;;;;;;;;;5049617;28;20047;-26
2021/12/20 02:18:17;;;;;;;18.88;4.10;;;;;;;;;;5049843;28;20052;-27
2021/12/20 02:20:43;;;;;;;22.60;4.30;;;;;;;;;;5031768;28;20041;-26
2021/12/20 02:23:09;;;;;;;20.27;4.18;;;;;;;;;;5049844;28;20402;-27
2021/12/20 02:25:36;;;;;;;23.80;5.22;;;;;;;;;;5050199;28;20471;-27
2021/12/20 02:28:06;;;;;;;17.15;3.40;;;;;;;;;;5050002;28;20072;-27
2021/12/20 02:38:30;;;;;;;17.08;3.90;;;;;;;;;;5049676;28;20041;-27
2021/12/20 02:40:57;;;;;;;21.50;3.72;;;;;;;;;;5049595;28;20040;-26
2021/12/20 02:43:24;;;;;;;13.57;3.47;;;;;;;;;;5048814;28;20076;-27
2021/12/20 02:45:54;;;;;;;18.73;3.63;;;;;;;;;;5049624;28;20045;-26
2021/12/20 02:48:23;;;;;;;18.00;3.85;;;;;;;;;;5050214;28;20041;-26
2021/12/20 02:50:49;;;;;;;20.67;3.70;;;;;;;;;;5056132;28;20036;-26
2021/12/20 02:53:15;;;;;;;17.13;3.60;;;;;;;;;;5055549;28;20059;-27
2021/12/20 02:55:41;;;;;;;19.13;4.20;;;;;;;;;;5069755;28;20182;-26
2021/12/20 02:58:09;;;;;;;16.45;3.72;;;;;;;;;;5069618;28;20091;-26
2021/12/20 03:00:34;;;;;;;14.13;3.80;;;;;;;;;;5070049;28;20502;-26
2021/12/20 03:03:00;;;;;;;22.83;3.85;;;;;;;;;;5069380;28;20047;-27
2021/12/20 03:05:26;;;;;;;13.68;3.25;;;;;;;;;;5069388;28;20040;-26
2021/12/20 03:07:53;;;;;;;17.13;3.55;;;;;;;;;;5069454;28;20043;-26
2021/12/20 03:10:21;;;;;;;16.58;3.80;;;;;;;;;;5072214;28;20123;-26
2021/12/20 03:12:49;;;;;;;16.95;3.63;;;;;;;;;;5073227;28;20182;-26
2021/12/20 03:15:20;;;;;;;14.90;3.38;;;;;;;;;;5072885;28;20048;-26
2021/12/20 03:17:46;;;;;;;11.93;3.03;;;;;;;;;;5073548;28;20516;-26
2021/12/20 03:20:14;;;;;;;14.95;3.35;;;;;;;;;;5073153;28;20040;-26
2021/12/20 03:22:41;;;;;;;20.23;3.42;;;;;;;;;;5054829;28;20075;-26
2021/12/20 03:25:07;;;;;;;11.18;3.28;;;;;;;;;;5072145;28;20040;-26
2021/12/20 03:27:33;;;;;;;17.40;3.90;;;;;;;;;;5073043;28;20048;-26
2021/12/20 03:29:59;;;;;;;14.52;3.45;;;;;;;;;;5073056;28;20044;-26
2021/12/20 03:32:25;;;;;;;12.43;3.05;;;;;;;;;;5072750;28;20071;-26
2021/12/20 03:34:51;;;;;;;13.80;3.22;;;;;;;;;;5054202;28;20074;-26
2021/12/20 03:37:19;;;;;;;26.15;4.70;;;;;;;;;;5071465;28;20478;-25
2021/12/20 03:39:45;;;;;;;18.50;3.63;;;;;;;;;;5071390;28;20489;-26
2021/12/20 03:42:12;;;;;;;16.27;4.43;;;;;;;;;;5071389;28;20040;-25
2021/12/20 03:44:43;;;;;;;12.80;2.80;;;;;;;;;;5071040;28;20540;-26
2021/12/20 03:47:10;;;;;;;15.98;3.97;;;;;;;;;;5071408;28;20124;-26
2021/12/20 03:49:36;;;;;;;13.95;3.05;;;;;;;;;;5071484;28;20466;-25
2021/12/20 03:52:05;;;;;;;10.35;3.13;;;;;;;;;;5070946;28;20332;-25
2021/12/20 03:54:31;;;;;;;18.65;3.50;;;;;;;;;;5070812;28;20044;-26
2021/12/20 03:56:57;;;;;;;12.02;3.28;;;;;;;;;;5071202;28;20119;-25
2021/12/20 03:59:23;;;;;;;16.42;3.58;;;;;;;;;;5071314;28;20549;-25
2021/12/20 04:01:50;;;;;;;20.05;3.30;;;;;;;;;;5071115;28;20037;-25
2021/12/20 04:04:16;;;;;;;13.73;3.40;;;;;;;;;;5070540;28;20461;-26
2021/12/20 04:06:45;;;;;;;13.00;3.03;;;;;;;;;;5071389;28;20072;-26
2021/12/20 04:09:11;;;;;;;16.67;3.30;;;;;;;;;;5072385;28;20501;-26
2021/12/20 04:11:37;;;;;;;20.73;2.90;;;;;;;;;;5072740;28;20429;-26
2021/12/20 04:14:03;;;;;;;21.30;3.42;;;;;;;;;;5071951;28;20516;-26
2021/12/20 04:16:29;;;;;;;17.73;3.47;;;;;;;;;;5072394;28;20044;-26
2021/12/20 04:18:56;;;;;;;13.30;3.50;;;;;;;;;;5072167;28;20044;-26
2021/12/20 04:21:22;;;;;;;13.50;3.13;;;;;;;;;;5053649;28;20128;-25
2021/12/20 04:23:48;;;;;;;18.77;3.22;;;;;;;;;;5071973;28;20529;-26
2021/12/20 04:26:17;;;;;;;12.43;3.20;;;;;;;;;;5071918;28;20040;-26
2021/12/20 04:28:43;;;;;;;17.63;3.20;;;;;;;;;;5071761;28;20041;-26
2021/12/20 04:31:18;;;;;;;11.38;3.78;;;;;;;;;;5071877;28;20460;-25
2021/12/20 04:33:44;;;;;;;11.70;3.45;;;;;;;;;;5071072;28;20049;-25
2021/12/20 04:36:10;;;;;;;14.77;3.67;;;;;;;;;;5071471;28;20037;-25
2021/12/20 04:38:48;;;;;;;16.85;3.40;;;;;;;;;;5072080;28;20115;-26
2021/12/20 04:41:14;;;;;;;14.02;3.30;;;;;;;;;;5071663;28;20041;-25
2021/12/20 04:43:40;;;;;;;14.80;3.17;;;;;;;;;;5070610;28;20051;-26
2021/12/20 04:46:06;;;;;;;12.48;3.13;;;;;;;;;;5051888;28;20123;-25
2021/12/20 04:48:32;;;;;;;15.52;2.92;;;;;;;;;;5050387;28;20560;-25
2021/12/20 04:51:07;;;;;;;12.63;2.80;;;;;;;;;;5050536;28;20114;-26
2021/12/20 04:53:36;;;;;;;18.88;3.83;;;;;;;;;;5049792;28;20041;-25
2021/12/20 04:56:02;;;;;;;12.90;2.63;;;;;;;;;;5050060;28;20498;-25
2021/12/20 04:58:28;;;;;;;13.07;3.63;;;;;;;;;;5050366;28;20072;-26
2021/12/20 05:00:54;;;;;;;14.50;3.35;;;;;;;;;;5048108;28;20079;-25
2021/12/20 05:03:20;;;;;;;13.32;3.30;;;;;;;;;;5057352;28;20035;-27
2021/12/20 05:05:46;;;;;;;14.40;3.03;;;;;;;;;;5073942;28;20086;-25
2021/12/20 05:08:19;;;;;;;16.25;3.20;;;;;;;;;;5072999;28;20040;-25
2021/12/20 05:10:45;;;;;;;13.80;3.08;;;;;;;;;;5078321;28;20063;-25
2021/12/20 05:13:13;;;;;;;15.13;3.55;;;;;;;;;;5073309;28;20083;-27
2021/12/20 05:15:39;;;;;;;13.02;3.28;;;;;;;;;;5049910;28;20051;-27
2021/12/20 05:18:07;;;;;;;17.38;3.50;;;;;;;;;;5069924;28;20112;-27
2021/12/20 05:20:42;;;;;;;16.33;3.47;;;;;;;;;;5065823;28;20033;-27
2021/12/20 05:23:15;;;;;;;12.40;3.22;;;;;;;;;;5073155;28;20041;-27
2021/12/20 05:25:41;;;;;;;13.85;2.90;;;;;;;;;;5066584;28;20044;-27
2021/12/20 05:28:10;;;;;;;10.20;2.80;;;;;;;;;;5063188;28;20151;-27
2021/12/20 05:30:36;;;;;;;16.65;3.85;;;;;;;;;;5059398;28;20037;-26
2021/12/20 05:33:03;;;;;;;11.40;3.20;;;;;;;;;;5043294;28;20095;-27
2021/12/20 05:35:33;;;;;;;19.23;3.58;;;;;;;;;;5070244;28;20040;-27
2021/12/20 05:37:59;;;;;;;14.02;3.42;;;;;;;;;;5070553;28;20044;-27
2021/12/20 05:40:25;;;;;;;15.07;3.30;;;;;;;;;;5070494;28;20083;-27
2021/12/20 05:42:52;;;;;;;14.32;3.30;;;;;;;;;;5070156;28;20067;-27
2021/12/20 05:45:19;;;;;;;19.02;3.70;;;;;;;;;;5069672;28;20052;-27
2021/12/20 05:47:45;;;;;;;13.18;2.85;;;;;;;;;;5070573;28;20383;-27
2021/12/20 05:50:12;;;;;;;10.13;3.13;;;;;;;;;;5070371;28;20118;-27
2021/12/20 05:52:39;;;;;;;14.90;2.95;;;;;;;;;;5070105;28;20040;-27
2021/12/20 05:55:06;;;;;;;13.23;3.13;;;;;;;;;;5068621;28;20032;-27
2021/12/20 05:57:32;;;;;;;12.88;3.03;;;;;;;;;;5052720;28;20049;-27
2021/12/20 05:59:59;;;;;;;11.15;2.70;;;;;;;;;;5070330;28;20044;-27
2021/12/20 06:02:25;;;;;;;11.38;3.13;;;;;;;;;;5070921;28;20066;-29
2021/12/20 06:04:51;;;;;;;12.88;3.38;;;;;;;;;;5054616;28;20039;-28
2021/12/20 06:07:19;;;;;;;7.70;2.63;;;;;;;;;;5032429;28;20036;-27
2021/12/20 06:09:49;;;;;;;14.63;3.55;;;;;;;;;;5016111;28;20453;-29
2021/12/20 06:12:24;;;;;;;10.95;2.80;;;;;;;;;;5050249;28;20043;-28
2021/12/20 06:14:50;;;;;;;10.75;2.45;;;;;;;;;;5050687;28;20094;-24
2021/12/20 06:17:16;;;;;;;12.23;2.75;;;;;;;;;;5050500;28;20036;-24
2021/12/20 06:19:45;;;;;;;13.13;3.22;;;;;;;;;;5050615;28;20045;-24
2021/12/20 06:22:12;;;;;;;13.88;3.50;;;;;;;;;;5050538;28;20037;-25
2021/12/20 06:24:38;;;;;;;9.23;2.75;;;;;;;;;;5050373;28;20079;-25
2021/12/20 06:27:04;;;;;;;15.15;2.97;;;;;;;;;;5050697;28;20120;-25
2021/12/20 06:29:33;;;;;;;10.50;3.35;;;;;;;;;;5050709;28;20506;-25
2021/12/20 06:31:59;;;;;;;12.95;2.70;;;;;;;;;;5050946;28;20125;-25
2021/12/20 06:34:25;;;;;;;9.55;3.47;;;;;;;;;;5050399;28;20530;-25
2021/12/20 06:36:51;;;;;;;13.45;3.03;;;;;;;;;;5050501;28;20040;-26
2021/12/20 06:39:17;;;;;;;13.20;2.90;;;;;;;;;;5050271;28;20047;-27
2021/12/20 06:41:46;;;;;;;14.15;3.00;;;;;;;;;;5050244;28;20063;-25
2021/12/20 06:44:12;;;;;;;11.05;3.33;;;;;;;;;;5033868;28;20371;-26
2021/12/20 06:46:41;;;;;;;12.57;3.05;;;;;;;;;;5054344;28;20049;-25
2021/12/20 06:49:11;;;;;;;14.35;3.42;;;;;;;;;;5054551;28;20097;-28
2021/12/20 06:51:42;;;;;;;14.88;3.65;;;;;;;;;;5055108;28;20534;-26
2021/12/20 06:54:11;;;;;;;10.90;4.28;;;;;;;;;;5053141;28;20045;-27
2021/12/20 06:56:37;;;;;;;13.45;4.20;;;;;;;;;;5054270;28;20075;-30
2021/12/20 06:59:04;;;;;;;12.10;3.80;;;;;;;;;;5053885;28;20036;-29
2021/12/20 07:01:30;;;;;;;13.30;3.88;;;;;;;;;;5069525;28;20570;-29
2021/12/20 07:03:56;;;;;;;13.00;3.65;;;;;;;;;;5073359;28;20044;-29
2021/12/20 07:06:25;;;;;;;11.88;3.40;;;;;;;;;;5038813;28;20040;-29
2021/12/20 07:08:51;;;;;;;13.23;3.53;;;;;;;;;;5072851;28;20036;-29
2021/12/20 07:11:17;;;;;;;12.52;3.22;;;;;;;;;;5073214;28;20040;-29
2021/12/20 07:13:43;;;;;;;13.00;3.53;;;;;;;;;;5055132;28;20064;-29
2021/12/20 07:16:15;;;;;;;14.27;3.25;;;;;;;;;;5067190;28;20169;-29
2021/12/20 07:18:42;;;;;;;12.50;2.97;;;;;;;;;;5026931;28;20405;-29
2021/12/20 07:21:08;;;;;;;10.90;3.80;;;;;;;;;;5059154;28;20220;-29
2021/12/20 07:23:34;;;;;;;13.90;3.78;;;;;;;;;;5055105;28;20095;-29
2021/12/20 07:26:01;;;;;;;12.68;3.88;;;;;;;;;;5063295;28;20041;-29
2021/12/20 07:28:27;;;;;;;17.70;4.10;;;;;;;;;;5052925;28;20110;-29
2021/12/20 07:30:53;;;;;;;11.90;3.67;;;;;;;;;;5053593;28;20041;-29
2021/12/20 07:33:19;;;;;;;15.65;4.53;;;;;;;;;;5064489;28;20055;-29
2021/12/20 07:35:46;;;;;;;20.70;5.80;;;;;;;;;;5073402;28;20163;-29
2021/12/20 07:38:14;;;;;;;16.15;5.50;;;;;;;;;;5071770;28;20052;-29
2021/12/20 07:40:44;;;;;;;14.40;5.07;;;;;;;;;;5068334;28;20263;-29
2021/12/20 07:43:10;;;;;;;11.73;4.90;;;;;;;;;;5058237;28;20632;-29
2021/12/20 07:45:37;;;;;;;15.00;4.40;;;;;;;;;;5052216;28;20057;-29
2021/12/20 07:48:03;;;;;;;22.15;5.13;;;;;;;;;;5034913;28;20052;-29
2021/12/20 07:50:30;;;;;;;12.02;3.88;;;;;;;;;;5052368;28;20094;-29
2021/12/20 07:52:59;;;;;;;12.82;4.65;;;;;;;;;;5072584;28;20087;-26
2021/12/20 07:55:25;;;;;;;10.65;3.63;;;;;;;;;;5053587;28;20448;-28
2021/12/20 07:57:51;;;;;;;12.98;3.95;;;;;;;;;;5072847;28;20039;-26
2021/12/20 08:00:17;;;;;;;12.15;4.03;;;;;;;;;;5054375;28;20047;-25
2021/12/20 08:02:44;;;;;;;20.38;4.25;;;;;;;;;;5072484;28;20078;-26
2021/12/20 08:05:10;;;;;;;16.67;3.85;;;;;;;;;;5072463;28;20049;-26
2021/12/20 08:07:36;;;;;;;11.30;3.95;;;;;;;;;;5054243;28;20079;-26
2021/12/20 08:10:03;;;;;;;15.13;4.05;;;;;;;;;;5054389;28;20087;-25
2021/12/20 08:12:29;;;;;;;12.43;3.58;;;;;;;;;;5072135;28;20500;-25
2021/12/20 08:14:59;;;;;;;18.45;4.15;;;;;;;;;;5072665;28;20461;-26
2021/12/20 08:17:28;;;;;;;9.55;2.85;;;;;;;;;;5073425;28;20495;-25
2021/12/20 08:19:58;;;;;;;11.48;2.95;;;;;;;;;;5075189;28;20446;-26
2021/12/20 08:22:25;;;;;;;19.67;5.00;;;;;;;;;;5074697;28;20528;-26
2021/12/20 08:24:51;;;;;;;10.27;3.25;;;;;;;;;;5074948;28;20452;-25
2021/12/20 08:27:26;;;;;;;11.43;3.90;;;;;;;;;;5073404;28;20045;-26
2021/12/20 08:29:52;;;;;;;14.63;3.90;;;;;;;;;;5072282;28;20040;-25
2021/12/20 08:32:20;;;;;;;17.95;4.70;;;;;;;;;;5072581;28;20044;-25
2021/12/20 08:34:49;;;;;;;19.67;3.78;;;;;;;;;;5073437;28;20068;-25
2021/12/20 08:37:15;;;;;;;11.02;3.03;;;;;;;;;;5074015;28;20043;-26
2021/12/20 08:39:42;;;;;;;9.93;3.10;;;;;;;;;;5072712;28;20043;-25
2021/12/20 08:42:08;;;;;;;13.77;3.40;;;;;;;;;;5073804;28;20098;-25
2021/12/20 08:44:35;;;;;;;14.82;4.20;;;;;;;;;;5074333;28;20501;-27
2021/12/20 08:47:04;;;;;;;14.43;3.40;;;;;;;;;;5074125;28;20500;-25
2021/12/20 08:49:30;;;;;;;10.85;3.38;;;;;;;;;;5070435;28;20082;-25
2021/12/20 08:51:56;;;;;;;19.58;4.68;;;;;;;;;;5069803;28;20291;-26
2021/12/20 08:54:24;;;;;;;18.45;4.97;;;;;;;;;;5070190;28;20423;-25
2021/12/20 08:56:51;;;;;;;20.02;5.13;;;;;;;;;;5070377;28;20037;-25
2021/12/20 08:59:17;;;;;;;20.50;6.25;;;;;;;;;;5070966;28;20036;-25
2021/12/20 09:01:43;;;;;;;21.38;5.93;;;;;;;;;;5071109;28;20036;-25
2021/12/20 09:04:10;;;;;;;11.95;4.65;;;;;;;;;;5072745;28;20063;-25
2021/12/20 09:06:41;;;;;;;15.25;5.18;;;;;;;;;;5073412;28;20044;-26
2021/12/20 09:09:08;;;;;;;13.25;5.07;;;;;;;;;;5073675;28;20040;-26
2021/12/20 09:11:35;;;;;;;13.95;5.32;;;;;;;;;;5039492;28;20099;-25
2021/12/20 09:14:01;;;;;;;14.25;5.20;;;;;;;;;;5073006;28;20080;-25
2021/12/20 09:16:27;;;;;;;12.23;5.30;;;;;;;;;;5055261;28;20074;-26
2021/12/20 09:18:53;;;;;;;12.45;5.93;;;;;;;;;;5073275;28;20041;-26
2021/12/20 09:21:19;;;;;;;12.70;6.75;;;;;;;;;;5072957;28;20048;-26
2021/12/20 09:23:46;;;;;;;22.88;6.72;;;;;;;;;;5073071;28;20052;-26
2021/12/20 09:26:15;;;;;;;18.70;6.20;;;;;;;;;;5073312;28;20040;-26
2021/12/20 09:28:44;;;;;;;15.10;6.85;;;;;;;;;;5073197;28;20095;-26
2021/12/20 09:31:10;;;;;;;17.88;7.28;;;;;;;;;;5074824;28;20040;-27
2021/12/20 09:33:39;;;;;;;12.90;5.47;;;;;;;;;;5066108;28;20039;-27
2021/12/20 09:36:05;;;;;;;17.30;6.32;;;;;;;;;;5046393;28;20037;-29
2021/12/20 09:38:34;;;;;;;15.70;6.35;;;;;;;;;;5068813;28;20038;-30
2021/12/20 09:43:49;;;;;;;9.52;4.40;;;;;;;;;;5064851;28;20114;-28
2021/12/20 09:46:16;;;;;;;10.18;4.22;;;;;;;;;;5069375;28;20126;-29
2021/12/20 09:48:46;;;;;;;14.80;4.05;;;;;;;;;;5054753;28;20058;-30
2021/12/20 09:51:13;;;;;;;8.60;4.03;;;;;;;;;;5072238;28;20040;-28
2021/12/20 09:53:40;;;;;;;9.75;3.00;;;;;;;;;;5072479;28;20386;-28
2021/12/20 09:56:10;;;;;;;11.90;3.50;;;;;;;;;;5075108;28;20039;-30
2021/12/20 09:58:37;;;;;;;11.48;3.28;;;;;;;;;;5075422;28;20111;-29
2021/12/20 10:01:05;;;;;;;11.18;3.15;;;;;;;;;;5069354;28;20043;-29
2021/12/20 10:03:31;;;;;;;8.93;3.20;;;;;;;;;;5054912;28;20045;-29
2021/12/20 10:05:58;;;;;;;9.00;2.75;;;;;;;;;;5081457;28;20081;-29
2021/12/20 10:08:35;;;;;;;6.95;2.40;;;;;;;;;;5071587;28;20107;-29
2021/12/20 10:11:05;;;;;;;5.93;2.60;;;;;;;;;;5072835;28;20116;-29
2021/12/20 10:13:40;;;;;;;11.88;3.65;;;;;;;;;;5070282;28;20138;-29
2021/12/20 10:16:23;;;;;;;8.10;3.13;;;;;;;;;;5076184;28;20362;-29
2021/12/20 10:18:49;;;;;;;11.93;3.53;;;;;;;;;;5052564;28;20044;-29
2021/12/20 10:21:16;;;;;;;10.00;3.35;;;;;;;;;;5056631;28;20040;-29
2021/12/20 10:23:44;;;;;;;6.65;3.17;;;;;;;;;;5062158;28;20044;-30
2021/12/20 10:26:13;;;;;;;8.45;3.47;;;;;;;;;;5057315;28;20045;-30
2021/12/20 10:28:39;;;;;;;8.48;3.33;;;;;;;;;;5054916;28;20100;-30
2021/12/20 10:31:10;;;;;;;15.15;4.20;;;;;;;;;;5064610;28;20063;-30
2021/12/20 10:33:37;;;;;;;14.32;3.55;;;;;;;;;;5071557;28;20048;-30
2021/12/20 10:36:05;;;;;;;12.35;4.30;;;;;;;;;;5072734;28;20033;-29
2021/12/20 10:38:31;;;;;;;10.70;4.28;;;;;;;;;;5061897;28;20540;-29
2021/12/20 10:40:57;;;;;;;13.32;4.60;;;;;;;;;;5073069;28;20067;-30
2021/12/20 10:43:26;;;;;;;11.65;4.43;;;;;;;;;;5073263;28;20397;-29
2021/12/20 10:45:53;;;;;;;12.25;3.90;;;;;;;;;;5072677;28;20051;-30
2021/12/20 10:48:19;;;;;;;11.68;3.95;;;;;;;;;;5073011;28;20041;-29
2021/12/20 10:50:46;;;;;;;14.27;3.90;;;;;;;;;;5072753;28;20036;-30
2021/12/20 10:53:12;;;;;;;15.18;4.35;;;;;;;;;;5072801;28;20054;-30
2021/12/20 10:55:42;;;;;;;13.35;4.45;;;;;;;;;;5072724;28;20525;-30
2021/12/20 10:58:41;;;;;;;13.30;4.18;;;;;;;;;;5073475;28;20151;-30
2021/12/20 11:01:14;;;;;;;6.78;2.97;;;;;;;;;;5029271;28;20048;-30
2021/12/20 11:03:41;;;;;;;8.80;3.07;;;;;;;;;;5073004;28;20090;-30
2021/12/20 11:06:24;;;;;;;12.05;3.50;;;;;;;;;;5072453;28;20282;-30
2021/12/20 11:09:07;;;;;;;10.70;4.00;;;;;;;;;;5055813;28;20106;-30
2021/12/20 11:11:34;;;;;;;10.73;3.75;;;;;;;;;;5055891;28;20452;-30
2021/12/20 11:14:13;;;;;;;12.75;3.85;;;;;;;;;;5052348;28;20111;-28
2021/12/20 11:16:41;;;;;;;10.77;3.97;;;;;;;;;;5032663;28;20043;-29
2021/12/20 11:19:07;;;;;;;10.68;3.88;;;;;;;;;;5050365;28;20049;-27
2021/12/20 11:21:39;;;;;;;7.93;3.25;;;;;;;;;;5068847;28;20091;-27
2021/12/20 11:24:15;;;;;;;12.20;3.55;;;;;;;;;;5071814;28;20088;-29
2021/12/20 11:26:51;;;;;;;8.55;3.42;;;;;;;;;;5053439;28;20072;-30
2021/12/20 11:29:23;;;;;;;8.20;2.88;;;;;;;;;;5070977;28;20045;-29
2021/12/20 11:31:50;;;;;;;8.82;3.22;;;;;;;;;;5071920;28;20512;-29
2021/12/20 11:34:16;;;;;;;11.27;3.83;;;;;;;;;;5074285;28;20041;-31
2021/12/20 11:36:42;;;;;;;7.75;3.15;;;;;;;;;;5074444;28;20032;-31
2021/12/20 11:39:09;;;;;;;9.15;3.30;;;;;;;;;;5075735;28;20036;-31
2021/12/20 11:41:35;;;;;;;10.85;3.25;;;;;;;;;;5078946;28;20050;-31
2021/12/20 11:44:03;;;;;;;7.88;2.95;;;;;;;;;;5075794;28;20036;-31
2021/12/20 11:46:38;;;;;;;6.22;3.20;;;;;;;;;;5077255;28;20040;-31
2021/12/20 11:49:05;;;;;;;7.88;2.95;;;;;;;;;;5073531;28;20075;-31
2021/12/20 11:51:51;;;;;;;10.98;3.80;;;;;;;;;;5078156;28;20114;-31
2021/12/20 11:54:36;;;;;;;12.73;3.70;;;;;;;;;;5078774;28;20032;-29
2021/12/20 11:57:05;;;;;;;11.27;3.35;;;;;;;;;;5054954;28;20597;-28
2021/12/20 11:59:48;;;;;;;9.82;3.03;;;;;;;;;;5054686;28;20065;-29
2021/12/20 12:02:34;;;;;;;7.68;2.33;;;;;;;;;;5054708;28;20037;-30
2021/12/20 12:05:05;;;;;;;4.70;2.40;;;;;;;;;;5054390;28;20049;-30
2021/12/20 12:07:35;;;;;;;8.43;2.75;;;;;;;;;;5054423;28;20453;-30
2021/12/20 12:10:01;;;;;;;6.20;2.47;;;;;;;;;;5071210;28;20037;-30
2021/12/20 12:12:28;;;;;;;7.55;3.08;;;;;;;;;;5077464;28;20519;-29
2021/12/20 12:15:03;;;;;;;10.70;3.00;;;;;;;;;;5079668;28;20067;-30
2021/12/20 12:17:47;;;;;;;6.32;2.60;;;;;;;;;;5051574;28;20119;-26
2021/12/20 12:20:14;;;;;;;8.45;2.75;;;;;;;;;;5076764;28;20058;-27
2021/12/20 12:22:41;;;;;;;7.95;2.53;;;;;;;;;;5068222;28;20480;-29
2021/12/20 12:25:11;;;;;;;7.38;2.85;;;;;;;;;;5067809;28;20039;-29
2021/12/20 12:27:40;;;;;;;6.13;2.50;;;;;;;;;;5068975;28;20037;-29
2021/12/20 12:30:12;;;;;;;5.47;1.75;;;;;;;;;;5064577;28;20064;-29
2021/12/20 12:32:58;;;;;;;8.38;2.30;;;;;;;;;;5071013;28;20153;-29
2021/12/20 12:35:39;;;;;;;5.95;2.67;;;;;;;;;;5082026;28;20043;-29
2021/12/20 12:38:16;;;;;;;7.97;2.40;;;;;;;;;;5045661;28;20032;-29
2021/12/20 12:40:45;;;;;;;10.15;3.75;;;;;;;;;;5071054;28;20127;-29
2021/12/20 12:43:21;;;;;;;6.90;2.45;;;;;;;;;;5070053;28;20551;-29
2021/12/20 12:46:00;;;;;;;7.97;2.40;;;;;;;;;;5070927;28;20045;-29
2021/12/20 12:48:32;;;;;;;7.65;2.80;;;;;;;;;;5070807;28;20048;-29
2021/12/20 12:50:58;;;;;;;7.72;2.42;;;;;;;;;;5072074;28;20037;-29
2021/12/20 12:53:49;;;;;;;8.13;2.50;;;;;;;;;;5064056;28;20048;-29
2021/12/20 12:56:38;;;;;;;8.05;2.65;;;;;;;;;;5060336;28;20036;-29
2021/12/20 12:59:10;;;;;;;6.85;2.10;;;;;;;;;;5063112;28;20123;-29
2021/12/20 13:01:38;;;;;;;6.05;2.33;;;;;;;;;;5058773;28;20107;-28
2021/12/20 13:04:04;;;;;;;4.15;1.90;;;;;;;;;;5032794;28;20045;-27
2021/12/20 13:06:30;;;;;;;6.63;2.15;;;;;;;;;;5052099;28;20037;-27
2021/12/20 13:09:00;;;;;;;6.30;2.47;;;;;;;;;;5058526;28;20119;-26
2021/12/20 13:11:28;;;;;;;5.25;2.35;;;;;;;;;;5052154;28;20036;-26
2021/12/20 13:14:10;;;;;;;5.80;2.17;;;;;;;;;;5054002;28;20483;-26
2021/12/20 13:16:42;;;;;;;7.65;2.75;;;;;;;;;;5051839;28;20116;-26
2021/12/20 13:19:09;;;;;;;5.55;1.83;;;;;;;;;;5064989;28;20064;-27
2021/12/20 13:21:49;;;;;;;4.00;1.60;;;;;;;;;;5071441;28;20044;-27
2021/12/20 13:24:16;;;;;;;4.30;1.95;;;;;;;;;;5070482;28;20040;-28
2021/12/20 13:26:42;;;;;;;5.88;1.98;;;;;;;;;;5064961;28;20039;-29
2021/12/20 13:29:14;;;;;;;8.82;2.55;;;;;;;;;;5070447;28;20077;-28
2021/12/20 13:31:40;;;;;;;4.85;1.70;;;;;;;;;;5078309;28;20044;-28
2021/12/20 13:34:11;;;;;;;5.97;2.40;;;;;;;;;;5062597;28;20468;-28
2021/12/20 13:36:40;;;;;;;4.97;2.25;;;;;;;;;;5069756;28;20044;-26
2021/12/20 13:39:10;;;;;;;4.90;1.60;;;;;;;;;;5052622;28;20081;-26
2021/12/20 13:41:41;;;;;;;5.18;1.80;;;;;;;;;;5070165;28;20047;-27
2021/12/20 13:44:15;;;;;;;5.28;1.73;;;;;;;;;;5061730;28;20115;-27
2021/12/20 13:46:44;;;;;;;5.13;1.80;;;;;;;;;;5069905;28;20086;-29
2021/12/20 13:49:14;;;;;;;5.28;2.10;;;;;;;;;;5072217;28;20072;-27
2021/12/20 13:52:15;;;;;;;3.45;2.05;;;;;;;;;;5076169;28;20522;-27
2021/12/20 13:54:45;;;;;;;4.25;1.77;;;;;;;;;;5054516;28;20072;-26
2021/12/20 13:57:23;;;;;;;4.30;1.30;;;;;;;;;;5065714;28;20071;-26
2021/12/20 13:59:50;;;;;;;4.45;1.45;;;;;;;;;;5070811;28;20052;-27
2021/12/20 14:02:41;;;;;;;4.95;1.40;;;;;;;;;;5066720;28;20028;-27
2021/12/20 14:05:13;;;;;;;3.88;1.67;;;;;;;;;;5064018;28;20148;-27
2021/12/20 14:07:43;;;;;;;7.10;1.75;;;;;;;;;;5070488;28;20044;-27
2021/12/20 14:10:16;;;;;;;7.65;1.80;;;;;;;;;;5064387;28;20095;-27
2021/12/20 14:12:42;;;;;;;4.10;1.50;;;;;;;;;;5049903;28;20045;-27
2021/12/20 14:15:11;;;;;;;4.95;1.90;;;;;;;;;;5049855;28;20570;-27
2021/12/20 14:17:55;;;;;;;11.25;10.15;;;;;;;;;;5050825;28;20515;-27
2021/12/20 14:20:41;;;;;;;5.72;3.17;;;;;;;;;;5050350;28;20033;-27
2021/12/20 14:23:09;;;;;;;6.63;4.78;;;;;;;;;;5049993;28;20052;-27
2021/12/20 14:25:42;;;;;;;9.70;8.63;;;;;;;;;;5032233;28;20571;-26
2021/12/20 14:28:11;;;;;;;41.22;34.47;;;;;;;;;;5032014;28;20087;-26
2021/12/20 14:30:43;;;;;;;33.40;26.40;;;;;;;;;;5032712;28;20172;-26
2021/12/20 14:33:17;;;;;;;13.52;10.77;;;;;;;;;;5049874;28;20402;-26
2021/12/20 14:35:43;;;;;;;;;;;;;;;;;;5067355;28;20047;-27
2021/12/20 14:38:28;;;;;;;28.10;22.45;;;;;;;;;;5063837;28;19920;-27
2021/12/20 14:40:58;;;;;;;14.15;7.45;;;;;;;;;;5069121;28;20047;-27
2021/12/20 14:43:31;;;;;;;7.38;3.65;;;;;;;;;;5069199;28;20052;-27
2021/12/20 14:46:17;;;;;;;8.00;4.15;;;;;;;;;;5051169;28;20052;-27
2021/12/20 14:48:51;;;;;;;5.20;2.90;;;;;;;;;;5052879;28;20049;-27
2021/12/20 14:51:18;;;;;;;16.20;3.00;;;;;;;;;;5050127;28;20037;-27
2021/12/20 14:53:48;;;;;;;9.25;2.20;;;;;;;;;;5031650;28;20045;-27
2021/12/20 14:56:14;;;;;;;8.68;3.03;;;;;;;;;;5049693;28;20040;-27
2021/12/20 14:58:40;;;;;;;9.88;3.47;;;;;;;;;;5049737;28;20394;-27
2021/12/20 15:01:07;;;;;;;6.47;2.45;;;;;;;;;;5049358;28;20040;-27